Time;durP1;ratioP1;P1;durP2;ratioP2;P2;SDS_P1;SDS_P2;PMS_P1;PMS_P2;Temp;Humidity;BMP_temperature;BMP_pressure;BME280_temperature;BME280_humidity;BME280_pressure;Samples;Min_cycle;Max_cycle;Signal;HPM_P1;HPM_P2
2022/06/01 00:01:37;;;;;;;24.88;19.27;;;13.70;99.90;;;;;;5062363;28;20028;-68
2022/06/01 00:04:03;;;;;;;24.33;20.05;;;13.70;99.90;;;;;;5062589;28;20025;-68
2022/06/01 00:06:29;;;;;;;24.35;17.73;;;13.70;99.90;;;;;;5062247;28;20076;-68
2022/06/01 00:08:55;;;;;;;28.92;21.15;;;13.70;99.90;;;;;;5062585;28;20087;-68
2022/06/01 00:11:20;;;;;;;23.33;18.95;;;13.70;99.90;;;;;;5062764;28;20080;-68
2022/06/01 00:13:46;;;;;;;24.42;18.45;;;13.60;99.90;;;;;;5064635;28;20542;-68
2022/06/01 00:16:12;;;;;;;26.85;21.35;;;13.60;99.90;;;;;;5065287;28;20060;-69
2022/06/01 00:18:38;;;;;;;28.40;20.55;;;13.60;99.90;;;;;;5066779;28;20033;-68
2022/06/01 00:21:05;;;;;;;25.83;20.33;;;13.60;99.90;;;;;;5067663;28;21670;-68
2022/06/01 00:23:30;;;;;;;31.33;22.98;;;13.50;99.90;;;;;;5065985;28;20779;-68
2022/06/01 00:25:58;;;;;;;26.10;19.60;;;13.50;99.90;;;;;;5066758;28;20028;-68
2022/06/01 00:28:24;;;;;;;28.02;20.60;;;13.50;99.90;;;;;;5063767;28;20064;-68
2022/06/01 00:30:50;;;;;;;23.83;19.00;;;13.50;99.90;;;;;;5067074;28;20115;-68
2022/06/01 00:33:15;;;;;;;26.90;20.67;;;13.40;99.90;;;;;;5062555;28;20107;-68
2022/06/01 00:35:41;;;;;;;26.98;20.77;;;13.40;99.90;;;;;;5067511;28;20029;-68
2022/06/01 00:38:07;;;;;;;26.85;20.08;;;13.40;99.90;;;;;;5067954;28;20027;-68
2022/06/01 00:40:33;;;;;;;20.38;17.70;;;13.40;99.90;;;;;;5066294;28;20493;-68
2022/06/01 00:43:00;;;;;;;23.95;18.48;;;13.30;99.90;;;;;;5063271;28;20041;-68
2022/06/01 00:45:29;;;;;;;25.30;19.42;;;13.40;99.90;;;;;;5066190;28;20036;-68
2022/06/01 00:47:55;;;;;;;26.88;20.80;;;13.30;99.90;;;;;;5066661;28;20020;-68
2022/06/01 00:50:36;;;;;;;24.23;20.67;;;13.30;99.90;;;;;;5064446;28;20028;-68
2022/06/01 00:53:09;;;;;;;26.85;21.20;;;13.30;99.90;;;;;;5066480;28;20037;-68
2022/06/01 00:55:39;;;;;;;23.88;19.55;;;13.30;99.90;;;;;;5066302;28;20111;-68
2022/06/01 00:58:10;;;;;;;24.20;19.45;;;13.20;99.90;;;;;;5066061;28;20428;-68
2022/06/01 01:00:39;;;;;;;27.23;19.25;;;13.20;99.90;;;;;;5066758;28;20032;-68
2022/06/01 01:03:06;;;;;;;22.40;19.65;;;13.20;99.90;;;;;;5066920;28;20045;-68
2022/06/01 01:05:33;;;;;;;22.13;18.05;;;13.20;99.90;;;;;;5066354;28;20028;-68
2022/06/01 01:08:02;;;;;;;23.13;18.45;;;13.20;99.90;;;;;;5066182;28;20028;-68
2022/06/01 01:10:27;;;;;;;24.42;21.02;;;13.20;99.90;;;;;;5064648;28;20036;-68
2022/06/01 01:13:04;;;;;;;25.33;19.92;;;13.10;99.90;;;;;;5063019;28;20040;-68
2022/06/01 01:15:40;;;;;;;23.13;19.70;;;13.20;99.90;;;;;;5064192;28;20086;-68
2022/06/01 01:18:10;;;;;;;26.63;23.02;;;13.10;99.90;;;;;;5067244;28;20028;-68
2022/06/01 01:20:56;;;;;;;29.13;23.35;;;13.10;99.90;;;;;;5066274;28;20572;-68
2022/06/01 01:23:38;;;;;;;23.63;21.10;;;13.10;99.90;;;;;;5064962;28;20025;-68
2022/06/01 01:26:05;;;;;;;26.73;22.48;;;13.10;99.90;;;;;;5065877;28;20071;-68
2022/06/01 01:28:31;;;;;;;25.40;22.70;;;13.10;99.90;;;;;;5065159;28;20044;-68
2022/06/01 01:31:05;;;;;;;24.55;21.17;;;13.00;99.90;;;;;;5065765;28;20413;-68
2022/06/01 01:33:31;;;;;;;26.83;23.98;;;13.00;99.90;;;;;;5079852;28;20035;-68
2022/06/01 01:36:08;;;;;;;27.75;23.67;;;13.00;99.90;;;;;;5065973;28;20044;-68
2022/06/01 01:38:54;;;;;;;28.13;23.42;;;13.00;99.90;;;;;;5065855;28;21221;-68
2022/06/01 01:41:31;;;;;;;27.08;22.98;;;13.00;99.90;;;;;;5064858;28;20358;-70
2022/06/01 01:44:01;;;;;;;28.67;23.88;;;13.00;99.90;;;;;;5065356;28;20037;-68
2022/06/01 01:46:30;;;;;;;25.20;22.60;;;13.00;99.90;;;;;;5064414;28;20042;-68
2022/06/01 01:48:55;;;;;;;27.38;23.35;;;13.00;99.90;;;;;;5063286;28;20493;-70
2022/06/01 01:51:23;;;;;;;28.17;25.15;;;13.00;99.90;;;;;;5063139;28;20119;-70
2022/06/01 01:53:50;;;;;;;27.88;24.92;;;13.00;99.90;;;;;;5064331;28;20023;-69
2022/06/01 01:56:53;;;;;;;27.05;22.65;;;13.00;99.90;;;;;;5064618;28;20472;-69
2022/06/01 01:59:25;;;;;;;21.33;19.13;;;13.00;99.90;;;;;;5080488;28;20063;-70
2022/06/01 02:02:27;;;;;;;24.50;21.83;;;12.90;99.90;;;;;;5065340;28;20025;-70
2022/06/01 02:08:18;;;;;;;30.77;25.77;;;12.80;99.90;;;;;;5065609;28;20059;-69
2022/06/01 02:13:29;;;;;;;34.00;28.17;;;12.80;99.90;;;;;;5064765;28;20455;-69
2022/06/01 02:15:56;;;;;;;31.48;26.55;;;12.80;99.90;;;;;;5061747;28;20033;-69
2022/06/01 02:18:28;;;;;;;35.90;28.38;;;12.80;99.90;;;;;;5063171;28;20477;-69
2022/06/01 02:21:02;;;;;;;34.47;27.75;;;12.70;99.90;;;;;;5064881;28;20082;-69
2022/06/01 02:23:31;;;;;;;36.92;28.00;;;12.70;99.90;;;;;;5079673;28;20036;-69
2022/06/01 02:25:58;;;;;;;29.23;25.40;;;12.70;99.90;;;;;;5080638;28;20066;-69
2022/06/01 02:28:25;;;;;;;29.50;24.63;;;12.70;99.90;;;;;;5064479;28;20013;-69
2022/06/01 02:30:51;;;;;;;31.45;26.35;;;12.70;99.90;;;;;;5063461;28;20135;-69
2022/06/01 02:33:23;;;;;;;33.85;25.35;;;12.70;99.90;;;;;;5062747;28;20016;-69
2022/06/01 02:35:52;;;;;;;28.77;22.90;;;12.70;99.90;;;;;;5064515;28;20040;-69
2022/06/01 02:38:29;;;;;;;33.05;24.27;;;12.70;99.90;;;;;;5061760;28;20056;-69
2022/06/01 02:40:55;;;;;;;30.30;23.33;;;12.70;99.90;;;;;;5080216;28;20017;-68
2022/06/01 02:43:21;;;;;;;27.60;21.67;;;12.70;99.90;;;;;;5063044;28;20043;-69
2022/06/01 02:45:46;;;;;;;26.55;21.67;;;12.70;99.90;;;;;;5064744;28;20025;-69
2022/06/01 02:48:12;;;;;;;24.58;20.00;;;12.60;99.90;;;;;;5064440;28;20447;-69
2022/06/01 02:50:38;;;;;;;25.08;20.98;;;12.60;99.90;;;;;;5064941;28;20026;-69
2022/06/01 02:53:05;;;;;;;26.55;22.73;;;12.60;99.90;;;;;;5065162;28;20032;-69
2022/06/01 02:55:32;;;;;;;26.08;20.55;;;12.60;99.90;;;;;;5063944;28;20035;-69
2022/06/01 02:57:58;;;;;;;24.42;19.70;;;12.60;99.90;;;;;;5061604;28;20063;-69
2022/06/01 03:00:37;;;;;;;22.48;18.15;;;12.60;99.90;;;;;;5062994;28;20108;-69
2022/06/01 03:03:05;;;;;;;24.85;20.75;;;12.60;99.90;;;;;;5079358;28;20101;-69
2022/06/01 03:05:36;;;;;;;24.13;19.02;;;12.60;99.90;;;;;;5063324;28;20032;-69
2022/06/01 03:08:02;;;;;;;24.23;19.73;;;12.50;99.90;;;;;;5080072;28;20032;-69
2022/06/01 03:10:29;;;;;;;27.48;20.63;;;12.50;99.90;;;;;;5060632;28;20032;-69
2022/06/01 03:12:55;;;;;;;25.55;18.75;;;12.50;99.90;;;;;;5062181;28;20541;-69
2022/06/01 03:15:22;;;;;;;22.23;19.25;;;12.50;99.90;;;;;;5063112;28;20481;-69
2022/06/01 03:17:48;;;;;;;25.70;19.25;;;12.50;99.90;;;;;;5061662;28;20028;-69
2022/06/01 03:20:18;;;;;;;23.05;18.85;;;12.50;99.90;;;;;;5062319;28;20028;-69
2022/06/01 03:22:43;;;;;;;26.70;18.33;;;12.40;99.90;;;;;;5064145;28;20119;-69
2022/06/01 03:25:13;;;;;;;22.73;18.02;;;12.40;99.90;;;;;;5064538;28;20028;-69
2022/06/01 03:27:39;;;;;;;24.20;19.30;;;12.40;99.90;;;;;;5062475;28;20103;-69
2022/06/01 03:30:07;;;;;;;20.80;17.38;;;12.30;99.90;;;;;;5064732;28;20103;-69
2022/06/01 03:32:33;;;;;;;21.90;16.35;;;12.30;99.90;;;;;;5063515;28;20822;-69
2022/06/01 03:34:58;;;;;;;22.90;18.73;;;12.20;99.90;;;;;;5077570;28;21228;-69
2022/06/01 03:37:24;;;;;;;20.85;17.95;;;12.20;99.90;;;;;;5063576;28;20030;-69
2022/06/01 03:39:50;;;;;;;23.38;19.63;;;12.10;99.90;;;;;;5063811;28;20044;-69
2022/06/01 03:42:15;;;;;;;24.30;18.63;;;12.10;99.90;;;;;;5062569;28;20046;-70
2022/06/01 03:47:25;;;;;;;22.20;18.45;;;12.10;99.90;;;;;;5062698;28;20043;-69
2022/06/01 03:49:50;;;;;;;24.08;18.42;;;12.10;99.90;;;;;;5062279;28;20021;-69
2022/06/01 03:52:16;;;;;;;21.73;16.55;;;12.10;99.90;;;;;;5062247;28;20454;-69
2022/06/01 03:54:41;;;;;;;21.30;17.27;;;12.10;99.90;;;;;;5064002;28;20027;-69
2022/06/01 03:57:07;;;;;;;21.63;17.05;;;12.10;99.90;;;;;;5063979;28;20051;-70
2022/06/01 03:59:34;;;;;;;21.23;18.15;;;12.00;99.90;;;;;;5063694;28;20091;-69
2022/06/01 04:02:05;;;;;;;24.98;17.27;;;12.00;99.90;;;;;;5062693;28;20028;-69
2022/06/01 04:04:33;;;;;;;19.55;17.45;;;12.00;99.90;;;;;;5062073;28;21107;-69
2022/06/01 04:06:58;;;;;;;19.10;15.45;;;12.00;99.90;;;;;;5063644;28;20563;-70
2022/06/01 04:09:24;;;;;;;19.15;14.50;;;12.00;99.90;;;;;;5060828;28;20116;-69
2022/06/01 04:11:51;;;;;;;20.23;14.38;;;12.00;99.90;;;;;;5063485;28;20060;-70
2022/06/01 04:14:19;;;;;;;17.58;15.48;;;12.00;99.90;;;;;;5062426;28;20017;-70
2022/06/01 04:16:46;;;;;;;16.52;13.93;;;12.00;99.90;;;;;;5060395;28;20028;-69
2022/06/01 04:19:12;;;;;;;15.15;12.48;;;11.90;99.90;;;;;;5063692;28;20495;-70
2022/06/01 04:21:40;;;;;;;15.70;12.85;;;11.90;99.90;;;;;;5064371;28;20104;-69
2022/06/01 04:24:10;;;;;;;19.85;13.45;;;11.90;99.90;;;;;;5062293;28;20020;-69
2022/06/01 04:26:36;;;;;;;15.35;12.60;;;12.00;99.90;;;;;;5062706;28;20033;-69
2022/06/01 04:29:01;;;;;;;13.48;11.20;;;11.90;99.90;;;;;;5063486;28;20028;-69
2022/06/01 04:31:27;;;;;;;14.75;12.05;;;11.90;99.90;;;;;;5061837;28;20131;-69
2022/06/01 04:33:54;;;;;;;14.90;10.80;;;11.90;99.90;;;;;;5062820;28;20366;-69
2022/06/01 04:36:19;;;;;;;15.63;12.15;;;11.90;99.90;;;;;;5062342;28;20366;-69
2022/06/01 04:38:45;;;;;;;15.75;13.05;;;12.00;99.90;;;;;;5062818;28;20032;-69
2022/06/01 04:41:10;;;;;;;13.77;10.82;;;12.00;99.90;;;;;;5061247;28;20021;-69
2022/06/01 04:43:36;;;;;;;14.35;11.05;;;11.90;99.90;;;;;;5062880;28;20370;-69
2022/06/01 04:46:02;;;;;;;16.48;9.60;;;11.90;99.90;;;;;;5062965;28;20385;-69
2022/06/01 04:48:27;;;;;;;14.32;10.15;;;11.90;99.90;;;;;;5062371;28;20036;-69
2022/06/01 04:50:55;;;;;;;13.07;10.20;;;11.90;99.90;;;;;;5062354;28;20033;-69
2022/06/01 04:53:20;;;;;;;11.65;9.77;;;11.90;99.90;;;;;;5061942;28;20020;-69
2022/06/01 04:55:46;;;;;;;20.58;10.57;;;12.00;99.90;;;;;;5062524;28;20115;-69
2022/06/01 04:58:13;;;;;;;14.25;9.25;;;12.00;99.90;;;;;;5066161;28;20044;-70
2022/06/01 05:00:40;;;;;;;12.32;9.23;;;12.00;99.90;;;;;;5065961;28;20019;-69
2022/06/01 05:03:07;;;;;;;12.18;10.10;;;12.10;99.90;;;;;;5065943;28;20029;-69
2022/06/01 05:05:36;;;;;;;10.95;8.25;;;12.10;99.90;;;;;;5066457;28;20033;-69
2022/06/01 05:08:01;;;;;;;12.68;9.40;;;12.10;99.90;;;;;;5064675;28;20060;-70
2022/06/01 05:10:28;;;;;;;11.50;7.65;;;12.10;99.90;;;;;;5063485;28;20071;-69
2022/06/01 05:12:54;;;;;;;12.10;7.88;;;12.10;99.90;;;;;;5065724;28;20107;-69
2022/06/01 05:15:20;;;;;;;7.93;6.78;;;12.20;99.90;;;;;;5065270;28;20055;-69
2022/06/01 05:17:46;;;;;;;12.55;8.27;;;12.20;99.90;;;;;;5063717;28;20086;-69
2022/06/01 05:20:13;;;;;;;16.80;8.73;;;12.30;99.90;;;;;;5066722;28;20473;-70
2022/06/01 05:22:40;;;;;;;12.65;8.38;;;12.30;99.90;;;;;;5064619;28;20058;-70
2022/06/01 05:25:06;;;;;;;13.00;8.43;;;12.40;99.90;;;;;;5065175;28;20404;-70
2022/06/01 05:27:32;;;;;;;14.10;8.10;;;12.50;99.90;;;;;;5064031;28;20123;-70
2022/06/01 05:29:58;;;;;;;11.13;7.63;;;12.60;99.90;;;;;;5065212;28;20112;-70
2022/06/01 05:32:24;;;;;;;13.50;8.18;;;12.60;99.90;;;;;;5063144;28;20040;-70
2022/06/01 05:34:49;;;;;;;12.90;8.93;;;12.60;99.90;;;;;;5065943;28;20074;-70
2022/06/01 05:37:15;;;;;;;14.80;8.48;;;12.70;99.90;;;;;;5065337;28;20028;-70
2022/06/01 05:39:41;;;;;;;13.45;8.20;;;12.80;99.90;;;;;;5066777;28;20048;-70
2022/06/01 05:42:07;;;;;;;12.55;9.15;;;12.80;99.90;;;;;;5065830;28;20064;-70
2022/06/01 05:44:33;;;;;;;13.27;8.52;;;12.90;99.90;;;;;;5064968;28;20492;-70
2022/06/01 05:47:01;;;;;;;14.50;8.65;;;13.00;99.90;;;;;;5065591;28;20032;-70
2022/06/01 05:49:27;;;;;;;18.42;9.43;;;12.90;99.90;;;;;;5064598;28;20946;-70
2022/06/01 05:51:53;;;;;;;16.10;8.40;;;13.00;99.90;;;;;;5063118;28;20119;-70
2022/06/01 05:54:19;;;;;;;14.77;9.38;;;13.00;99.90;;;;;;5064743;28;20036;-70
2022/06/01 05:56:45;;;;;;;12.68;9.05;;;13.10;99.90;;;;;;5064848;28;20423;-70
2022/06/01 05:59:11;;;;;;;15.32;9.15;;;13.10;99.90;;;;;;5065664;28;20032;-70
2022/06/01 06:01:38;;;;;;;19.02;9.32;;;13.20;99.90;;;;;;5064482;28;20028;-70
2022/06/01 06:04:04;;;;;;;16.55;9.75;;;13.20;99.90;;;;;;5064716;28;20062;-70
2022/06/01 06:06:29;;;;;;;19.73;12.38;;;13.20;99.90;;;;;;5063486;28;20115;-70
2022/06/01 06:09:02;;;;;;;15.57;9.38;;;13.30;99.90;;;;;;5064376;28;20025;-70
2022/06/01 06:11:30;;;;;;;15.20;9.88;;;13.30;99.90;;;;;;5061546;28;20060;-70
2022/06/01 06:13:58;;;;;;;16.98;10.07;;;13.30;99.90;;;;;;5064737;28;20048;-70
2022/06/01 06:16:24;;;;;;;18.65;10.55;;;13.40;99.90;;;;;;5062375;28;20025;-70
2022/06/01 06:18:51;;;;;;;16.58;10.43;;;13.40;99.90;;;;;;5065284;28;20025;-70
2022/06/01 06:21:17;;;;;;;15.68;10.90;;;13.40;99.90;;;;;;5064598;28;20207;-70
2022/06/01 06:23:43;;;;;;;22.50;11.48;;;13.50;99.90;;;;;;5060531;28;20028;-70
2022/06/01 06:26:08;;;;;;;19.33;11.20;;;13.40;99.90;;;;;;5060960;28;20446;-69
2022/06/01 06:28:35;;;;;;;14.18;9.77;;;13.50;99.90;;;;;;5065426;28;20115;-70
2022/06/01 06:31:00;;;;;;;17.65;10.15;;;13.60;99.90;;;;;;5063915;28;20049;-70
2022/06/01 06:33:27;;;;;;;18.38;10.25;;;13.60;99.90;;;;;;5061607;28;20058;-70
2022/06/01 06:35:59;;;;;;;16.23;10.73;;;13.70;99.90;;;;;;5064517;28;20098;-70
2022/06/01 06:38:27;;;;;;;16.43;9.40;;;13.80;99.90;;;;;;5064116;28;20028;-70
2022/06/01 06:40:54;;;;;;;17.65;10.07;;;13.90;99.90;;;;;;5065016;28;20031;-71
2022/06/01 06:43:24;;;;;;;20.27;10.63;;;14.00;99.90;;;;;;5063148;28;20067;-70
2022/06/01 06:46:07;;;;;;;18.25;9.90;;;14.20;99.90;;;;;;5062690;28;20031;-71
2022/06/01 06:48:32;;;;;;;16.45;10.93;;;14.40;99.90;;;;;;5064143;28;20029;-70
2022/06/01 06:50:58;;;;;;;18.30;9.80;;;14.60;99.90;;;;;;5064621;28;20039;-70
2022/06/01 06:53:24;;;;;;;20.63;9.98;;;14.60;99.90;;;;;;5063851;28;20032;-70
2022/06/01 06:55:50;;;;;;;19.23;10.45;;;14.70;99.90;;;;;;5064401;28;20063;-70
2022/06/01 06:58:16;;;;;;;16.48;10.68;;;14.80;99.90;;;;;;5063805;28;20047;-70
2022/06/01 07:00:42;;;;;;;17.73;10.68;;;14.80;99.90;;;;;;5062784;28;20020;-70
2022/06/01 07:03:08;;;;;;;22.98;10.43;;;14.90;99.90;;;;;;5063449;28;20443;-70
2022/06/01 07:08:18;;;;;;;17.95;9.93;;;15.10;99.90;;;;;;5062682;28;20090;-70
2022/06/01 07:10:44;;;;;;;22.05;9.85;;;15.10;99.90;;;;;;5063928;28;20480;-70
2022/06/01 07:13:09;;;;;;;18.02;10.27;;;15.20;99.90;;;;;;5062219;28;20036;-70
2022/06/01 07:15:35;;;;;;;17.25;10.48;;;15.30;99.90;;;;;;5063908;28;20055;-70
2022/06/01 07:18:05;;;;;;;19.45;10.27;;;15.30;99.90;;;;;;5062067;28;20078;-70
2022/06/01 07:20:31;;;;;;;17.40;9.80;;;15.40;99.90;;;;;;5063007;28;20032;-70
2022/06/01 07:22:57;;;;;;;16.40;8.45;;;15.60;99.90;;;;;;5064161;28;20789;-70
2022/06/01 07:25:24;;;;;;;13.75;8.27;;;15.60;99.90;;;;;;5062517;28;20044;-70
2022/06/01 07:27:50;;;;;;;16.45;7.68;;;15.60;99.90;;;;;;5060670;28;20032;-70
2022/06/01 07:30:16;;;;;;;13.93;7.53;;;15.70;99.90;;;;;;5060648;28;20028;-70
2022/06/01 07:32:46;;;;;;;12.52;7.68;;;16.00;99.90;;;;;;5062101;28;20024;-70
2022/06/01 07:35:12;;;;;;;15.85;7.43;;;16.20;99.90;;;;;;5037215;28;20116;-70
2022/06/01 07:43:07;;;;;;;12.45;7.38;;;16.40;99.90;;;;;;5063364;28;20044;-70
2022/06/01 07:45:38;;;;;;;10.85;6.43;;;16.50;99.90;;;;;;5063931;28;20024;-70
2022/06/01 07:48:06;;;;;;;10.70;6.60;;;16.60;99.90;;;;;;5064112;28;20193;-70
2022/06/01 07:50:32;;;;;;;9.07;6.97;;;16.70;99.90;;;;;;5064008;28;20126;-70
2022/06/01 07:52:59;;;;;;;12.55;6.20;;;16.60;99.90;;;;;;5059213;28;20173;-71
2022/06/01 07:55:25;;;;;;;8.13;5.07;;;16.70;99.90;;;;;;5061956;28;20028;-70
2022/06/01 07:57:50;;;;;;;8.63;4.78;;;16.70;99.90;;;;;;5064068;28;20020;-70
2022/06/01 08:00:17;;;;;;;12.88;5.30;;;16.60;99.90;;;;;;5059250;28;20110;-70
2022/06/01 08:02:43;;;;;;;7.55;5.10;;;16.80;99.90;;;;;;5064715;28;20029;-70
2022/06/01 08:05:10;;;;;;;5.35;4.85;;;16.90;99.90;;;;;;5062482;28;20028;-70
2022/06/01 08:07:36;;;;;;;7.30;4.40;;;16.90;99.90;;;;;;5064624;28;20389;-70
2022/06/01 08:10:03;;;;;;;7.70;4.15;;;16.90;99.90;;;;;;5061263;28;20029;-69
2022/06/01 08:15:13;;;;;;;5.50;4.32;;;17.30;99.90;;;;;;5064037;28;20083;-70
2022/06/01 08:17:39;;;;;;;7.88;4.80;;;17.20;99.90;;;;;;5065436;28;20024;-70
2022/06/01 08:20:06;;;;;;;5.93;4.20;;;17.30;99.90;;;;;;5063597;28;20101;-70
2022/06/01 08:22:31;;;;;;;7.13;3.38;;;17.60;99.90;;;;;;5063992;28;21379;-70
2022/06/01 08:24:57;;;;;;;6.40;3.13;;;17.70;99.90;;;;;;5062373;28;20063;-70
2022/06/01 08:27:22;;;;;;;3.97;3.58;;;18.00;99.90;;;;;;5061764;28;20024;-70
2022/06/01 08:29:48;;;;;;;7.88;3.40;;;18.30;99.90;;;;;;5063252;28;20020;-70
2022/06/01 08:32:13;;;;;;;5.10;2.97;;;18.30;99.90;;;;;;5065109;28;20397;-70
2022/06/01 08:34:39;;;;;;;3.78;2.92;;;18.20;99.90;;;;;;5064866;28;20081;-70
2022/06/01 08:37:05;;;;;;;5.82;3.00;;;18.00;99.90;;;;;;5068128;28;20056;-70
2022/06/01 08:39:31;;;;;;;7.70;3.05;;;17.70;99.90;;;;;;5065497;28;20033;-70
2022/06/01 08:41:58;;;;;;;7.70;2.58;;;17.70;99.90;;;;;;5068154;28;20068;-70
2022/06/01 08:44:32;;;;;;;4.45;2.33;;;18.10;99.90;;;;;;5064577;28;20035;-70
2022/06/01 08:47:04;;;;;;;3.53;2.58;;;18.00;99.90;;;;;;5067476;28;20043;-69
2022/06/01 08:49:33;;;;;;;4.57;2.90;;;18.00;99.90;;;;;;5065407;28;20139;-70
2022/06/01 08:51:59;;;;;;;3.28;2.75;;;18.00;99.90;;;;;;5063878;28;20068;-70
2022/06/01 08:54:25;;;;;;;3.25;2.20;;;18.20;99.90;;;;;;5064229;28;20025;-70
2022/06/01 08:57:01;;;;;;;3.88;2.13;;;18.20;99.90;;;;;;5067357;28;20032;-70
2022/06/01 09:00:04;;;;;;;13.43;2.75;;;18.30;99.90;;;;;;5065407;28;20021;-70
2022/06/01 09:02:57;;;;;;;7.57;3.42;;;18.40;99.90;;;;;;5066655;28;20040;-69
2022/06/01 09:05:35;;;;;;;5.68;2.72;;;18.50;99.90;;;;;;5060334;28;20052;-69
2022/06/01 09:08:19;;;;;;;3.92;2.78;;;18.50;99.90;;;;;;5065815;28;20033;-70
2022/06/01 09:10:53;;;;;;;4.93;2.60;;;18.60;99.90;;;;;;5065074;28;20028;-70
2022/06/01 09:13:23;;;;;;;3.08;2.38;;;18.50;99.90;;;;;;5065263;28;20032;-70
2022/06/01 09:16:12;;;;;;;5.72;2.75;;;18.70;99.90;;;;;;5067232;28;20047;-70
2022/06/01 09:18:49;;;;;;;3.58;2.83;;;19.00;99.90;;;;;;5065926;28;20388;-70
2022/06/01 09:24:12;;;;;;;6.20;2.80;;;18.70;99.90;;;;;;5064608;28;20488;-70
2022/06/01 09:27:09;;;;;;;3.42;2.92;;;18.50;99.90;;;;;;5065593;28;20031;-70
2022/06/01 09:29:45;;;;;;;6.75;3.58;;;18.40;99.90;;;;;;5062679;28;20046;-71
2022/06/01 09:32:23;;;;;;;4.28;3.10;;;18.70;99.90;;;;;;5061549;28;20032;-70
2022/06/01 09:34:50;;;;;;;5.57;3.38;;;18.60;99.90;;;;;;5058574;28;20045;-70
2022/06/01 09:37:26;;;;;;;4.65;3.40;;;18.80;99.90;;;;;;5064754;28;20021;-69
2022/06/01 09:40:03;;;;;;;5.13;3.03;;;19.10;99.90;;;;;;5065583;28;20480;-71
2022/06/01 09:42:38;;;;;;;5.15;3.20;;;19.50;99.90;;;;;;5063225;28;20036;-70
2022/06/01 09:45:23;;;;;;;4.60;2.92;;;19.40;99.90;;;;;;5066268;28;20511;-71
2022/06/01 09:47:50;;;;;;;3.47;3.13;;;19.10;99.90;;;;;;5065070;28;20032;-70
2022/06/01 09:50:34;;;;;;;4.93;3.30;;;19.20;99.90;;;;;;5066007;28;20063;-71
2022/06/01 09:53:13;;;;;;;4.90;3.03;;;19.70;99.90;;;;;;5065347;28;20493;-70
2022/06/01 09:55:52;;;;;;;3.25;2.85;;;20.00;99.90;;;;;;5065139;28;20035;-70
2022/06/01 10:07:03;;;;;;;4.75;2.15;;;21.00;98.90;;;;;;5066092;28;20047;-71
2022/06/01 10:09:31;;;;;;;3.45;2.45;;;21.30;97.20;;;;;;5063168;28;20904;-71
2022/06/01 10:11:57;;;;;;;4.60;2.10;;;21.30;99.30;;;;;;5062999;28;20091;-70
2022/06/01 10:14:31;;;;;;;4.45;1.83;;;21.50;98.10;;;;;;5063911;28;20488;-70
2022/06/01 10:17:19;;;;;;;3.63;2.33;;;21.50;96.90;;;;;;5060611;28;20032;-71
2022/06/01 10:20:04;;;;;;;4.93;2.30;;;21.70;95.60;;;;;;5065825;28;20385;-69
2022/06/01 10:22:40;;;;;;;3.33;2.50;;;21.90;95.60;;;;;;5064312;28;20027;-71
2022/06/01 10:25:17;;;;;;;2.60;1.50;;;21.60;95.90;;;;;;5063688;28;20081;-69
2022/06/01 10:28:10;;;;;;;1.70;1.48;;;21.20;96.00;;;;;;5065367;28;20028;-70
2022/06/01 10:30:38;;;;;;;2.08;1.88;;;21.00;97.50;;;;;;5064964;28;20044;-71
2022/06/01 10:33:14;;;;;;;4.80;3.10;;;20.70;96.40;;;;;;5062469;28;20386;-71
2022/06/01 10:35:52;;;;;;;4.32;3.03;;;20.50;97.30;;;;;;5064304;28;20397;-70
2022/06/01 10:38:32;;;;;;;3.00;2.70;;;20.40;97.00;;;;;;5063782;28;20032;-71
2022/06/01 10:41:05;;;;;;;3.65;3.08;;;20.60;97.40;;;;;;5057675;28;20027;-70
2022/06/01 10:43:59;;;;;;;4.25;2.35;;;20.60;97.40;;;;;;5063822;28;20032;-70
2022/06/01 10:46:57;;;;;;;4.95;2.67;;;20.90;97.70;;;;;;5062553;28;20031;-70
2022/06/01 10:49:31;;;;;;;2.85;2.60;;;21.00;96.70;;;;;;5061778;28;20020;-71
2022/06/01 10:52:03;;;;;;;5.75;2.50;;;21.10;96.50;;;;;;5064306;28;20048;-70
2022/06/01 10:54:39;;;;;;;4.80;2.67;;;21.00;95.30;;;;;;5060796;28;20090;-70
2022/06/01 10:57:08;;;;;;;2.75;1.75;;;21.20;96.20;;;;;;5064633;28;20454;-70
2022/06/01 10:59:34;;;;;;;3.63;1.92;;;21.30;95.40;;;;;;5063860;28;20020;-70
2022/06/01 11:02:21;;;;;;;5.35;1.80;;;21.20;95.60;;;;;;5062956;28;20106;-69
2022/06/01 11:05:15;;;;;;;3.60;1.92;;;21.00;94.80;;;;;;5056382;28;20017;-70
2022/06/01 11:08:00;;;;;;;3.72;1.80;;;21.10;96.50;;;;;;5064486;28;20051;-70
2022/06/01 11:10:35;;;;;;;2.63;2.28;;;21.20;94.20;;;;;;5061721;28;20039;-70
2022/06/01 11:13:46;;;;;;;2.47;1.90;;;21.10;94.70;;;;;;5062880;28;20055;-70
2022/06/01 11:16:22;;;;;;;4.05;1.90;;;21.40;94.70;;;;;;5058912;28;20068;-70
2022/06/01 11:19:06;;;;;;;2.53;1.83;;;21.50;92.40;;;;;;5061949;28;20024;-70
2022/06/01 11:21:59;;;;;;;4.88;2.00;;;21.30;93.40;;;;;;5057448;28;20039;-70
2022/06/01 11:24:49;;;;;;;2.72;1.90;;;21.30;93.20;;;;;;5061480;28;20027;-70
2022/06/01 11:27:41;;;;;;;3.35;2.30;;;21.60;94.20;;;;;;5056904;28;20040;-70
2022/06/01 11:30:24;;;;;;;5.47;4.18;;;21.50;94.90;;;;;;5066408;28;20056;-70
2022/06/01 11:33:22;;;;;;;6.55;5.10;;;21.20;96.90;;;;;;5057050;28;20059;-70
2022/06/01 11:35:58;;;;;;;5.20;4.80;;;20.70;98.10;;;;;;5068270;28;20036;-70
2022/06/01 11:38:35;;;;;;;5.70;5.10;;;20.50;98.70;;;;;;5060971;28;20107;-70
2022/06/01 11:41:00;;;;;;;7.30;4.55;;;20.80;99.80;;;;;;5058551;28;20098;-70
2022/06/01 11:43:38;;;;;;;4.78;3.88;;;20.70;97.70;;;;;;5061899;28;20040;-70
2022/06/01 11:46:35;;;;;;;4.25;3.70;;;20.40;97.20;;;;;;5063678;28;20672;-70
2022/06/01 11:49:24;;;;;;;4.32;3.97;;;19.90;98.20;;;;;;5065778;28;20032;-70
2022/06/01 11:51:50;;;;;;;5.13;4.03;;;19.60;99.00;;;;;;5060665;28;20125;-70
2022/06/01 11:54:33;;;;;;;5.60;4.38;;;19.40;99.40;;;;;;5062854;28;20055;-70
2022/06/01 11:57:24;;;;;;;4.47;4.15;;;19.20;99.50;;;;;;5060289;28;20037;-70
2022/06/01 12:00:19;;;;;;;4.90;4.50;;;19.00;99.70;;;;;;5060588;28;20024;-69
2022/06/01 12:02:55;;;;;;;5.20;4.40;;;18.70;99.90;;;;;;5073449;28;20086;-69
2022/06/01 12:05:30;;;;;;;7.45;5.00;;;18.70;99.90;;;;;;5056002;28;20020;-71
2022/06/01 12:08:16;;;;;;;6.55;5.65;;;18.50;99.90;;;;;;5069192;28;21784;-70
2022/06/01 12:10:56;;;;;;;6.60;6.10;;;18.50;99.90;;;;;;5068673;28;20509;-71
2022/06/01 12:13:31;;;;;;;6.18;5.68;;;18.40;99.90;;;;;;5064197;28;20036;-71
2022/06/01 12:16:15;;;;;;;5.57;5.18;;;18.60;99.90;;;;;;5063687;28;20120;-71
2022/06/01 12:19:09;;;;;;;7.45;5.78;;;18.60;99.90;;;;;;5067037;28;20039;-71
2022/06/01 12:21:43;;;;;;;5.75;5.15;;;18.60;99.90;;;;;;5067296;28;20029;-72
2022/06/01 12:30:24;;;;;;;7.90;6.20;;;18.70;99.90;;;;;;5065103;28;20160;-71
2022/06/01 12:32:59;;;;;;;6.30;5.90;;;18.50;99.90;;;;;;5065145;28;20044;-71
2022/06/01 12:35:32;;;;;;;8.07;7.30;;;18.40;99.90;;;;;;5063028;28;20480;-72
2022/06/01 12:38:08;;;;;;;6.97;6.40;;;18.40;99.90;;;;;;5062325;28;20025;-72
2022/06/01 12:40:34;;;;;;;5.75;5.25;;;18.50;99.90;;;;;;5065201;28;20408;-72
2022/06/01 12:43:02;;;;;;;6.45;5.85;;;18.40;99.90;;;;;;5062288;28;20508;-71
2022/06/01 12:45:40;;;;;;;5.25;4.85;;;18.60;99.90;;;;;;5065098;28;21523;-71
2022/06/01 12:48:13;;;;;;;5.13;4.82;;;18.60;99.90;;;;;;5062184;28;20054;-70
2022/06/01 12:51:07;;;;;;;5.00;4.50;;;18.70;99.90;;;;;;5067759;28;20114;-70
2022/06/01 12:53:41;;;;;;;4.80;4.50;;;18.70;99.90;;;;;;5062993;28;20132;-71
2022/06/01 12:56:16;;;;;;;4.68;4.32;;;18.80;99.90;;;;;;5067111;28;20028;-70
2022/06/01 12:58:44;;;;;;;4.90;4.50;;;19.00;99.90;;;;;;5063962;28;20111;-70
2022/06/01 13:01:10;;;;;;;4.80;4.32;;;19.00;99.90;;;;;;5065708;28;20023;-70
2022/06/01 13:03:49;;;;;;;4.28;3.92;;;19.10;99.90;;;;;;5062074;28;20040;-70
2022/06/01 13:06:19;;;;;;;4.03;3.70;;;19.10;99.90;;;;;;5065245;28;20025;-70
2022/06/01 13:08:56;;;;;;;4.50;4.20;;;19.10;99.90;;;;;;5061755;28;20370;-70
2022/06/01 13:11:27;;;;;;;7.63;3.88;;;19.10;99.90;;;;;;5066043;28;20021;-70
2022/06/01 13:13:52;;;;;;;5.97;5.32;;;19.30;99.90;;;;;;5067703;28;20051;-70
2022/06/01 13:16:21;;;;;;;4.90;3.63;;;19.40;99.90;;;;;;5065643;28;20488;-70
2022/06/01 13:18:48;;;;;;;4.47;3.97;;;19.50;99.90;;;;;;5068774;28;20092;-70
2022/06/01 13:21:33;;;;;;;5.10;4.45;;;19.40;99.90;;;;;;5066088;28;20035;-70
2022/06/01 13:24:08;;;;;;;4.40;4.00;;;19.50;99.90;;;;;;5060471;28;20028;-70
2022/06/01 13:26:35;;;;;;;4.68;3.42;;;19.50;99.90;;;;;;5063141;28;20029;-70
2022/06/01 13:29:18;;;;;;;6.35;4.45;;;19.40;99.70;;;;;;5062745;28;20504;-70
2022/06/01 13:31:46;;;;;;;;;;;19.30;99.50;;;;;;5066931;28;20099;-67
2022/06/01 13:34:23;;;;;;;3.22;3.03;;;19.30;99.90;;;;;;5061439;28;19966;-69